sensor_id;sensor_type;location;lat;lon;timestamp;temperature;humidity
27506;DHT22;14939;43.596;1.320;2023-05-07T00:00:05;16.00;99.90
27506;DHT22;14939;43.596;1.320;2023-05-07T00:02:33;15.90;99.90
27506;DHT22;14939;43.596;1.320;2023-05-07T00:04:59;15.90;99.90
27506;DHT22;14939;43.596;1.320;2023-05-07T00:07:25;16.00;99.90
27506;DHT22;14939;43.596;1.320;2023-05-07T00:09:50;15.90;99.90
27506;DHT22;14939;43.596;1.320;2023-05-07T00:12:16;16.00;99.90
27506;DHT22;14939;43.596;1.320;2023-05-07T00:14:42;16.00;99.90
27506;DHT22;14939;43.596;1.320;2023-05-07T00:17:07;15.90;99.90
27506;DHT22;14939;43.596;1.320;2023-05-07T00:19:33;16.00;99.90
27506;DHT22;14939;43.596;1.320;2023-05-07T00:21:59;15.90;99.90
27506;DHT22;14939;43.596;1.320;2023-05-07T00:24:24;15.90;99.90
27506;DHT22;14939;43.596;1.320;2023-05-07T00:26:50;15.90;99.90
27506;DHT22;14939;43.596;1.320;2023-05-07T00:29:16;15.90;99.90
27506;DHT22;14939;43.596;1.320;2023-05-07T00:31:42;15.90;99.90
27506;DHT22;14939;43.596;1.320;2023-05-07T00:34:07;15.90;99.90
27506;DHT22;14939;43.596;1.320;2023-05-07T00:36:33;15.90;99.90
27506;DHT22;14939;43.596;1.320;2023-05-07T00:39:00;15.90;99.90
27506;DHT22;14939;43.596;1.320;2023-05-07T00:41:27;15.80;99.90
27506;DHT22;14939;43.596;1.320;2023-05-07T00:43:52;15.80;99.90
27506;DHT22;14939;43.596;1.320;2023-05-07T00:46:20;15.80;99.90
27506;DHT22;14939;43.596;1.320;2023-05-07T00:48:47;15.70;99.90
27506;DHT22;14939;43.596;1.320;2023-05-07T00:51:13;15.80;99.90
27506;DHT22;14939;43.596;1.320;2023-05-07T00:53:39;15.70;99.90
27506;DHT22;14939;43.596;1.320;2023-05-07T00:56:05;15.70;99.90
27506;DHT22;14939;43.596;1.320;2023-05-07T00:58:32;15.60;99.90
27506;DHT22;14939;43.596;1.320;2023-05-07T01:00:59;15.60;99.90
27506;DHT22;14939;43.596;1.320;2023-05-07T01:03:25;15.60;99.90
27506;DHT22;14939;43.596;1.320;2023-05-07T01:05:51;15.60;99.90
27506;DHT22;14939;43.596;1.320;2023-05-07T01:08:18;15.60;99.90
27506;DHT22;14939;43.596;1.320;2023-05-07T01:10:44;15.60;99.90
27506;DHT22;14939;43.596;1.320;2023-05-07T01:13:12;15.60;99.90
27506;DHT22;14939;43.596;1.320;2023-05-07T01:15:39;15.70;99.90
27506;DHT22;14939;43.596;1.320;2023-05-07T01:18:06;15.70;99.90
27506;DHT22;14939;43.596;1.320;2023-05-07T01:20:32;15.60;99.90
27506;DHT22;14939;43.596;1.320;2023-05-07T01:22:59;15.50;99.90
27506;DHT22;14939;43.596;1.320;2023-05-07T01:25:25;15.50;99.90
27506;DHT22;14939;43.596;1.320;2023-05-07T01:27:51;15.40;99.90
27506;DHT22;14939;43.596;1.320;2023-05-07T01:30:18;15.40;99.90
27506;DHT22;14939;43.596;1.320;2023-05-07T01:33:02;15.30;99.90
27506;DHT22;14939;43.596;1.320;2023-05-07T01:35:35;15.20;99.90
27506;DHT22;14939;43.596;1.320;2023-05-07T01:38:01;15.20;99.90
27506;DHT22;14939;43.596;1.320;2023-05-07T01:40:30;15.20;99.90
27506;DHT22;14939;43.596;1.320;2023-05-07T01:42:55;15.20;99.90
27506;DHT22;14939;43.596;1.320;2023-05-07T01:45:21;15.20;99.90
27506;DHT22;14939;43.596;1.320;2023-05-07T01:47:51;15.20;99.90
27506;DHT22;14939;43.596;1.320;2023-05-07T01:50:19;15.20;99.90
27506;DHT22;14939;43.596;1.320;2023-05-07T01:52:47;15.10;99.90
27506;DHT22;14939;43.596;1.320;2023-05-07T01:55:13;15.10;99.90
27506;DHT22;14939;43.596;1.320;2023-05-07T01:57:38;15.10;99.90
27506;DHT22;14939;43.596;1.320;2023-05-07T02:00:05;15.10;99.90
27506;DHT22;14939;43.596;1.320;2023-05-07T02:02:30;15.10;99.90
27506;DHT22;14939;43.596;1.320;2023-05-07T02:04:56;15.10;99.90
27506;DHT22;14939;43.596;1.320;2023-05-07T02:07:22;15.10;99.90
27506;DHT22;14939;43.596;1.320;2023-05-07T02:09:48;15.00;99.90
27506;DHT22;14939;43.596;1.320;2023-05-07T02:12:13;15.00;99.90
27506;DHT22;14939;43.596;1.320;2023-05-07T02:14:39;15.00;99.90
27506;DHT22;14939;43.596;1.320;2023-05-07T02:17:05;15.00;99.90
27506;DHT22;14939;43.596;1.320;2023-05-07T02:19:31;15.00;99.90
27506;DHT22;14939;43.596;1.320;2023-05-07T02:21:57;15.00;99.90
27506;DHT22;14939;43.596;1.320;2023-05-07T02:24:22;15.00;99.90
27506;DHT22;14939;43.596;1.320;2023-05-07T02:26:48;15.00;99.90
27506;DHT22;14939;43.596;1.320;2023-05-07T02:29:13;15.00;99.90
27506;DHT22;14939;43.596;1.320;2023-05-07T02:31:39;14.90;99.90
27506;DHT22;14939;43.596;1.320;2023-05-07T02:34:05;15.00;99.90
27506;DHT22;14939;43.596;1.320;2023-05-07T02:36:32;14.90;99.90
27506;DHT22;14939;43.596;1.320;2023-05-07T02:38:57;14.90;99.90
27506;DHT22;14939;43.596;1.320;2023-05-07T02:41:23;14.90;99.90
27506;DHT22;14939;43.596;1.320;2023-05-07T02:43:49;14.80;99.90
27506;DHT22;14939;43.596;1.320;2023-05-07T02:46:14;14.80;99.90
27506;DHT22;14939;43.596;1.320;2023-05-07T02:48:41;14.70;99.90
27506;DHT22;14939;43.596;1.320;2023-05-07T02:51:06;14.70;99.90
27506;DHT22;14939;43.596;1.320;2023-05-07T02:53:32;14.60;99.90
27506;DHT22;14939;43.596;1.320;2023-05-07T02:55:59;14.60;99.90
27506;DHT22;14939;43.596;1.320;2023-05-07T02:58:25;14.70;99.90
27506;DHT22;14939;43.596;1.320;2023-05-07T03:00:51;14.70;99.90
27506;DHT22;14939;43.596;1.320;2023-05-07T03:03:17;14.70;99.90
27506;DHT22;14939;43.596;1.320;2023-05-07T03:05:43;14.70;99.90
27506;DHT22;14939;43.596;1.320;2023-05-07T03:08:09;14.70;99.90
27506;DHT22;14939;43.596;1.320;2023-05-07T03:10:36;14.70;99.90
27506;DHT22;14939;43.596;1.320;2023-05-07T03:13:02;14.70;99.90
27506;DHT22;14939;43.596;1.320;2023-05-07T03:15:28;14.70;99.90
27506;DHT22;14939;43.596;1.320;2023-05-07T03:17:54;14.80;99.90
27506;DHT22;14939;43.596;1.320;2023-05-07T03:20:20;14.80;99.90
27506;DHT22;14939;43.596;1.320;2023-05-07T03:22:45;14.80;99.90
27506;DHT22;14939;43.596;1.320;2023-05-07T03:25:12;14.80;99.90
27506;DHT22;14939;43.596;1.320;2023-05-07T03:27:37;14.80;99.90
27506;DHT22;14939;43.596;1.320;2023-05-07T03:30:04;14.90;99.90
27506;DHT22;14939;43.596;1.320;2023-05-07T03:32:29;14.80;99.90
27506;DHT22;14939;43.596;1.320;2023-05-07T03:34:55;14.80;99.90
27506;DHT22;14939;43.596;1.320;2023-05-07T03:37:21;14.90;99.90
27506;DHT22;14939;43.596;1.320;2023-05-07T03:39:47;14.90;99.90
27506;DHT22;14939;43.596;1.320;2023-05-07T03:42:14;14.90;99.90
27506;DHT22;14939;43.596;1.320;2023-05-07T03:44:40;14.90;99.90
27506;DHT22;14939;43.596;1.320;2023-05-07T03:47:05;14.90;99.90
27506;DHT22;14939;43.596;1.320;2023-05-07T03:49:31;14.90;99.90
27506;DHT22;14939;43.596;1.320;2023-05-07T03:51:57;15.00;99.90
27506;DHT22;14939;43.596;1.320;2023-05-07T03:54:22;15.00;99.90
27506;DHT22;14939;43.596;1.320;2023-05-07T03:56:48;15.00;99.90
27506;DHT22;14939;43.596;1.320;2023-05-07T03:59:14;14.90;99.90
27506;DHT22;14939;43.596;1.320;2023-05-07T04:01:39;14.90;99.90
27506;DHT22;14939;43.596;1.320;2023-05-07T04:04:06;14.90;99.90
27506;DHT22;14939;43.596;1.320;2023-05-07T04:06:31;14.90;99.90
27506;DHT22;14939;43.596;1.320;2023-05-07T04:08:57;14.80;99.90
27506;DHT22;14939;43.596;1.320;2023-05-07T04:11:23;14.80;99.90
27506;DHT22;14939;43.596;1.320;2023-05-07T04:13:49;14.80;99.90
27506;DHT22;14939;43.596;1.320;2023-05-07T04:16:15;14.80;99.90
27506;DHT22;14939;43.596;1.320;2023-05-07T04:18:41;14.80;99.90
27506;DHT22;14939;43.596;1.320;2023-05-07T04:21:14;14.80;99.90
27506;DHT22;14939;43.596;1.320;2023-05-07T04:23:40;14.80;99.90
27506;DHT22;14939;43.596;1.320;2023-05-07T04:26:05;14.70;99.90
27506;DHT22;14939;43.596;1.320;2023-05-07T04:28:31;14.70;99.90
27506;DHT22;14939;43.596;1.320;2023-05-07T04:30:57;14.70;99.90
27506;DHT22;14939;43.596;1.320;2023-05-07T04:33:23;14.70;99.90
27506;DHT22;14939;43.596;1.320;2023-05-07T04:35:49;14.70;99.90
27506;DHT22;14939;43.596;1.320;2023-05-07T04:38:15;14.70;99.90
27506;DHT22;14939;43.596;1.320;2023-05-07T04:40:40;14.60;99.90
27506;DHT22;14939;43.596;1.320;2023-05-07T04:43:06;14.60;99.90
27506;DHT22;14939;43.596;1.320;2023-05-07T04:45:37;14.60;99.90
27506;DHT22;14939;43.596;1.320;2023-05-07T04:48:05;14.60;99.90
27506;DHT22;14939;43.596;1.320;2023-05-07T04:50:31;14.60;99.90
27506;DHT22;14939;43.596;1.320;2023-05-07T04:52:57;14.60;99.90
27506;DHT22;14939;43.596;1.320;2023-05-07T04:55:22;14.60;99.90
27506;DHT22;14939;43.596;1.320;2023-05-07T04:57:48;14.70;99.90
27506;DHT22;14939;43.596;1.320;2023-05-07T05:00:14;14.70;99.90
27506;DHT22;14939;43.596;1.320;2023-05-07T05:02:40;14.60;99.90
27506;DHT22;14939;43.596;1.320;2023-05-07T05:05:06;14.70;99.90
27506;DHT22;14939;43.596;1.320;2023-05-07T05:07:32;14.60;99.90
27506;DHT22;14939;43.596;1.320;2023-05-07T05:09:58;14.60;99.90
27506;DHT22;14939;43.596;1.320;2023-05-07T05:12:24;14.70;99.90
27506;DHT22;14939;43.596;1.320;2023-05-07T05:14:50;14.70;99.90
27506;DHT22;14939;43.596;1.320;2023-05-07T05:17:16;14.70;99.90
27506;DHT22;14939;43.596;1.320;2023-05-07T05:19:41;14.70;99.90
27506;DHT22;14939;43.596;1.320;2023-05-07T05:22:07;14.70;99.90
27506;DHT22;14939;43.596;1.320;2023-05-07T05:24:33;14.70;99.90
27506;DHT22;14939;43.596;1.320;2023-05-07T05:26:58;14.70;99.90
27506;DHT22;14939;43.596;1.320;2023-05-07T05:29:27;14.70;99.90
27506;DHT22;14939;43.596;1.320;2023-05-07T05:31:53;14.80;99.90
27506;DHT22;14939;43.596;1.320;2023-05-07T05:34:18;14.80;99.90
27506;DHT22;14939;43.596;1.320;2023-05-07T05:36:47;14.80;99.90
27506;DHT22;14939;43.596;1.320;2023-05-07T05:39:13;14.80;99.90
27506;DHT22;14939;43.596;1.320;2023-05-07T05:41:39;14.80;99.90
27506;DHT22;14939;43.596;1.320;2023-05-07T05:44:05;14.90;99.90
27506;DHT22;14939;43.596;1.320;2023-05-07T05:46:31;14.90;99.90
27506;DHT22;14939;43.596;1.320;2023-05-07T05:48:56;14.80;99.90
27506;DHT22;14939;43.596;1.320;2023-05-07T05:51:22;14.90;99.90
27506;DHT22;14939;43.596;1.320;2023-05-07T05:53:48;14.80;99.90
27506;DHT22;14939;43.596;1.320;2023-05-07T05:56:16;14.90;99.90
27506;DHT22;14939;43.596;1.320;2023-05-07T05:58:41;14.80;99.90
27506;DHT22;14939;43.596;1.320;2023-05-07T06:01:07;14.80;99.90
27506;DHT22;14939;43.596;1.320;2023-05-07T06:03:33;14.80;99.90
27506;DHT22;14939;43.596;1.320;2023-05-07T06:05:59;14.80;99.90
27506;DHT22;14939;43.596;1.320;2023-05-07T06:08:28;14.80;99.90
27506;DHT22;14939;43.596;1.320;2023-05-07T06:10:54;14.80;99.90
27506;DHT22;14939;43.596;1.320;2023-05-07T06:13:20;14.80;99.90
27506;DHT22;14939;43.596;1.320;2023-05-07T06:15:46;14.90;99.90
27506;DHT22;14939;43.596;1.320;2023-05-07T06:18:11;14.90;99.90
27506;DHT22;14939;43.596;1.320;2023-05-07T06:20:37;14.90;99.90
27506;DHT22;14939;43.596;1.320;2023-05-07T06:23:03;14.90;99.90
27506;DHT22;14939;43.596;1.320;2023-05-07T06:25:28;14.90;99.90
27506;DHT22;14939;43.596;1.320;2023-05-07T06:27:54;15.00;99.90
27506;DHT22;14939;43.596;1.320;2023-05-07T06:30:20;15.00;99.90
27506;DHT22;14939;43.596;1.320;2023-05-07T06:32:45;15.00;99.90
27506;DHT22;14939;43.596;1.320;2023-05-07T06:35:11;15.00;99.90
27506;DHT22;14939;43.596;1.320;2023-05-07T06:37:37;15.00;99.90
27506;DHT22;14939;43.596;1.320;2023-05-07T06:40:05;15.00;99.90
27506;DHT22;14939;43.596;1.320;2023-05-07T06:42:35;15.00;99.90
27506;DHT22;14939;43.596;1.320;2023-05-07T06:45:01;15.00;99.90
27506;DHT22;14939;43.596;1.320;2023-05-07T06:47:28;15.10;99.90
27506;DHT22;14939;43.596;1.320;2023-05-07T06:49:53;15.00;99.90
27506;DHT22;14939;43.596;1.320;2023-05-07T06:52:19;15.00;99.90
27506;DHT22;14939;43.596;1.320;2023-05-07T06:54:45;15.10;99.90
27506;DHT22;14939;43.596;1.320;2023-05-07T06:57:10;15.10;99.90
27506;DHT22;14939;43.596;1.320;2023-05-07T06:59:36;15.10;99.90
27506;DHT22;14939;43.596;1.320;2023-05-07T07:02:02;15.20;99.90
27506;DHT22;14939;43.596;1.320;2023-05-07T07:04:27;15.20;99.90
27506;DHT22;14939;43.596;1.320;2023-05-07T07:06:54;15.30;99.90
27506;DHT22;14939;43.596;1.320;2023-05-07T07:09:20;15.20;99.90
27506;DHT22;14939;43.596;1.320;2023-05-07T07:11:46;15.20;99.90
27506;DHT22;14939;43.596;1.320;2023-05-07T07:14:11;15.30;99.90
27506;DHT22;14939;43.596;1.320;2023-05-07T07:16:37;15.40;99.90
27506;DHT22;14939;43.596;1.320;2023-05-07T07:19:02;15.60;99.90
27506;DHT22;14939;43.596;1.320;2023-05-07T07:21:28;15.50;99.90
27506;DHT22;14939;43.596;1.320;2023-05-07T07:23:54;15.60;99.90
27506;DHT22;14939;43.596;1.320;2023-05-07T07:26:19;15.60;99.90
27506;DHT22;14939;43.596;1.320;2023-05-07T07:28:46;15.60;99.90
27506;DHT22;14939;43.596;1.320;2023-05-07T07:31:12;15.60;99.90
27506;DHT22;14939;43.596;1.320;2023-05-07T07:33:38;15.70;99.90
27506;DHT22;14939;43.596;1.320;2023-05-07T07:36:05;15.70;99.90
27506;DHT22;14939;43.596;1.320;2023-05-07T07:38:31;15.90;99.90
27506;DHT22;14939;43.596;1.320;2023-05-07T07:40:57;16.00;99.90
27506;DHT22;14939;43.596;1.320;2023-05-07T07:43:22;16.10;99.90
27506;DHT22;14939;43.596;1.320;2023-05-07T07:45:48;16.20;99.90
27506;DHT22;14939;43.596;1.320;2023-05-07T07:48:14;16.30;99.90
27506;DHT22;14939;43.596;1.320;2023-05-07T07:50:40;16.50;99.90
27506;DHT22;14939;43.596;1.320;2023-05-07T07:53:05;16.50;99.90
27506;DHT22;14939;43.596;1.320;2023-05-07T07:55:31;16.50;99.90
27506;DHT22;14939;43.596;1.320;2023-05-07T07:57:57;16.70;99.90
27506;DHT22;14939;43.596;1.320;2023-05-07T08:00:23;16.80;99.90
27506;DHT22;14939;43.596;1.320;2023-05-07T08:02:49;17.00;99.90
27506;DHT22;14939;43.596;1.320;2023-05-07T08:05:15;17.10;99.90
27506;DHT22;14939;43.596;1.320;2023-05-07T08:07:41;17.00;99.90
27506;DHT22;14939;43.596;1.320;2023-05-07T08:10:07;17.10;99.00
27506;DHT22;14939;43.596;1.320;2023-05-07T08:12:33;16.90;99.10
27506;DHT22;14939;43.596;1.320;2023-05-07T08:14:58;16.80;99.90
27506;DHT22;14939;43.596;1.320;2023-05-07T08:17:24;17.00;98.60
27506;DHT22;14939;43.596;1.320;2023-05-07T08:19:50;17.10;99.00
27506;DHT22;14939;43.596;1.320;2023-05-07T08:22:15;17.30;97.80
27506;DHT22;14939;43.596;1.320;2023-05-07T08:24:43;17.50;95.90
27506;DHT22;14939;43.596;1.320;2023-05-07T08:27:09;17.40;95.90
27506;DHT22;14939;43.596;1.320;2023-05-07T08:29:34;17.50;96.50
27506;DHT22;14939;43.596;1.320;2023-05-07T08:32:01;17.50;95.10
27506;DHT22;14939;43.596;1.320;2023-05-07T08:34:26;17.30;94.00
27506;DHT22;14939;43.596;1.320;2023-05-07T08:36:52;17.30;95.60
27506;DHT22;14939;43.596;1.320;2023-05-07T08:39:18;17.30;94.80
27506;DHT22;14939;43.596;1.320;2023-05-07T08:41:48;17.30;94.00
27506;DHT22;14939;43.596;1.320;2023-05-07T08:44:16;17.50;94.40
27506;DHT22;14939;43.596;1.320;2023-05-07T08:46:45;17.60;93.90
27506;DHT22;14939;43.596;1.320;2023-05-07T08:49:13;17.50;92.60
27506;DHT22;14939;43.596;1.320;2023-05-07T08:51:41;17.30;93.70
27506;DHT22;14939;43.596;1.320;2023-05-07T08:54:07;17.20;94.30
27506;DHT22;14939;43.596;1.320;2023-05-07T08:56:34;17.10;93.90
27506;DHT22;14939;43.596;1.320;2023-05-07T08:59:00;17.10;94.50
27506;DHT22;14939;43.596;1.320;2023-05-07T09:01:26;17.20;94.90
27506;DHT22;14939;43.596;1.320;2023-05-07T09:03:52;17.40;95.50
27506;DHT22;14939;43.596;1.320;2023-05-07T09:06:18;17.50;93.70
27506;DHT22;14939;43.596;1.320;2023-05-07T09:08:52;17.50;92.40
27506;DHT22;14939;43.596;1.320;2023-05-07T09:11:23;17.70;92.00
27506;DHT22;14939;43.596;1.320;2023-05-07T09:13:53;18.10;90.60
27506;DHT22;14939;43.596;1.320;2023-05-07T09:16:20;18.20;89.00
27506;DHT22;14939;43.596;1.320;2023-05-07T09:18:48;18.10;88.60
27506;DHT22;14939;43.596;1.320;2023-05-07T09:21:17;18.30;88.30
27506;DHT22;14939;43.596;1.320;2023-05-07T09:23:43;18.30;85.80
27506;DHT22;14939;43.596;1.320;2023-05-07T09:26:09;18.40;84.90
27506;DHT22;14939;43.596;1.320;2023-05-07T09:28:43;18.50;82.90
27506;DHT22;14939;43.596;1.320;2023-05-07T09:31:10;18.50;82.60
27506;DHT22;14939;43.596;1.320;2023-05-07T09:33:36;18.30;84.40
27506;DHT22;14939;43.596;1.320;2023-05-07T09:36:06;18.10;84.40
27506;DHT22;14939;43.596;1.320;2023-05-07T09:38:33;17.80;86.20
27506;DHT22;14939;43.596;1.320;2023-05-07T09:41:07;17.70;86.20
27506;DHT22;14939;43.596;1.320;2023-05-07T09:43:35;17.40;87.70
27506;DHT22;14939;43.596;1.320;2023-05-07T09:46:20;17.30;89.90
27506;DHT22;14939;43.596;1.320;2023-05-07T09:48:53;17.20;91.20
27506;DHT22;14939;43.596;1.320;2023-05-07T09:51:25;17.20;91.70
27506;DHT22;14939;43.596;1.320;2023-05-07T09:53:54;17.10;94.00
27506;DHT22;14939;43.596;1.320;2023-05-07T09:56:20;17.10;93.30
27506;DHT22;14939;43.596;1.320;2023-05-07T09:58:46;16.90;95.70
27506;DHT22;14939;43.596;1.320;2023-05-07T10:01:13;16.80;96.60
27506;DHT22;14939;43.596;1.320;2023-05-07T10:03:43;16.70;99.90
27506;DHT22;14939;43.596;1.320;2023-05-07T10:06:10;16.60;99.90
27506;DHT22;14939;43.596;1.320;2023-05-07T10:08:37;16.70;99.90
27506;DHT22;14939;43.596;1.320;2023-05-07T10:11:04;16.80;99.90
27506;DHT22;14939;43.596;1.320;2023-05-07T10:13:34;17.10;99.90
27506;DHT22;14939;43.596;1.320;2023-05-07T10:16:06;17.30;99.90
27506;DHT22;14939;43.596;1.320;2023-05-07T10:18:33;17.20;99.90
27506;DHT22;14939;43.596;1.320;2023-05-07T10:21:11;17.10;99.90
27506;DHT22;14939;43.596;1.320;2023-05-07T10:23:39;17.00;99.90
27506;DHT22;14939;43.596;1.320;2023-05-07T10:26:06;17.10;97.60
27506;DHT22;14939;43.596;1.320;2023-05-07T10:28:38;17.10;98.30
27506;DHT22;14939;43.596;1.320;2023-05-07T10:31:15;17.20;98.80
27506;DHT22;14939;43.596;1.320;2023-05-07T10:33:45;17.40;96.90
27506;DHT22;14939;43.596;1.320;2023-05-07T10:36:12;17.60;97.70
27506;DHT22;14939;43.596;1.320;2023-05-07T10:38:38;18.10;95.70
27506;DHT22;14939;43.596;1.320;2023-05-07T10:41:06;18.20;92.90
27506;DHT22;14939;43.596;1.320;2023-05-07T10:43:39;18.20;92.50
27506;DHT22;14939;43.596;1.320;2023-05-07T10:46:10;18.40;93.40
27506;DHT22;14939;43.596;1.320;2023-05-07T10:51:34;18.50;90.90
27506;DHT22;14939;43.596;1.320;2023-05-07T10:56:43;18.60;89.50
27506;DHT22;14939;43.596;1.320;2023-05-07T11:01:57;19.20;86.40
27506;DHT22;14939;43.596;1.320;2023-05-07T11:04:25;19.10;83.60
27506;DHT22;14939;43.596;1.320;2023-05-07T11:15:09;19.90;78.90
27506;DHT22;14939;43.596;1.320;2023-05-07T11:17:53;20.10;76.90
27506;DHT22;14939;43.596;1.320;2023-05-07T11:20:19;20.10;71.30
27506;DHT22;14939;43.596;1.320;2023-05-07T11:22:46;20.00;73.30
27506;DHT22;14939;43.596;1.320;2023-05-07T11:25:17;20.20;71.00
27506;DHT22;14939;43.596;1.320;2023-05-07T11:27:44;20.10;67.70
27506;DHT22;14939;43.596;1.320;2023-05-07T11:30:17;20.30;65.40
27506;DHT22;14939;43.596;1.320;2023-05-07T11:32:44;20.40;66.80
27506;DHT22;14939;43.596;1.320;2023-05-07T11:35:12;20.60;65.40
27506;DHT22;14939;43.596;1.320;2023-05-07T11:37:39;20.90;64.80
27506;DHT22;14939;43.596;1.320;2023-05-07T11:40:09;20.60;63.90
27506;DHT22;14939;43.596;1.320;2023-05-07T11:42:39;20.80;65.60
27506;DHT22;14939;43.596;1.320;2023-05-07T11:45:07;20.70;64.80
27506;DHT22;14939;43.596;1.320;2023-05-07T11:47:33;20.50;61.20
27506;DHT22;14939;43.596;1.320;2023-05-07T11:50:05;20.10;60.30
27506;DHT22;14939;43.596;1.320;2023-05-07T11:52:31;19.70;62.40
27506;DHT22;14939;43.596;1.320;2023-05-07T11:54:58;19.60;63.80
27506;DHT22;14939;43.596;1.320;2023-05-07T11:57:26;19.40;68.10
27506;DHT22;14939;43.596;1.320;2023-05-07T12:00:00;19.90;66.60
27506;DHT22;14939;43.596;1.320;2023-05-07T12:02:27;20.20;65.20
27506;DHT22;14939;43.596;1.320;2023-05-07T12:04:54;20.30;64.20
27506;DHT22;14939;43.596;1.320;2023-05-07T12:07:21;20.40;63.00
27506;DHT22;14939;43.596;1.320;2023-05-07T12:09:47;20.50;61.30
27506;DHT22;14939;43.596;1.320;2023-05-07T12:12:14;21.00;63.00
27506;DHT22;14939;43.596;1.320;2023-05-07T12:14:42;21.30;57.80
27506;DHT22;14939;43.596;1.320;2023-05-07T12:17:09;21.50;57.20
27506;DHT22;14939;43.596;1.320;2023-05-07T12:19:36;21.30;55.50
27506;DHT22;14939;43.596;1.320;2023-05-07T12:22:03;21.70;57.70
27506;DHT22;14939;43.596;1.320;2023-05-07T12:24:29;21.50;54.30
27506;DHT22;14939;43.596;1.320;2023-05-07T12:26:54;21.30;56.00
27506;DHT22;14939;43.596;1.320;2023-05-07T12:29:23;21.20;54.70
27506;DHT22;14939;43.596;1.320;2023-05-07T12:31:52;21.10;55.20
27506;DHT22;14939;43.596;1.320;2023-05-07T12:34:18;20.50;54.90
27506;DHT22;14939;43.596;1.320;2023-05-07T12:36:44;20.30;54.10
27506;DHT22;14939;43.596;1.320;2023-05-07T12:39:09;20.60;55.40
27506;DHT22;14939;43.596;1.320;2023-05-07T12:41:55;21.00;53.30
27506;DHT22;14939;43.596;1.320;2023-05-07T12:44:29;21.20;55.00
27506;DHT22;14939;43.596;1.320;2023-05-07T12:46:54;21.30;53.10
27506;DHT22;14939;43.596;1.320;2023-05-07T12:49:20;21.10;54.70
27506;DHT22;14939;43.596;1.320;2023-05-07T12:51:49;21.10;52.30
27506;DHT22;14939;43.596;1.320;2023-05-07T12:54:31;21.20;51.70
27506;DHT22;14939;43.596;1.320;2023-05-07T12:57:05;21.30;52.40
27506;DHT22;14939;43.596;1.320;2023-05-07T12:59:38;21.50;53.40
27506;DHT22;14939;43.596;1.320;2023-05-07T13:02:05;21.90;50.70
27506;DHT22;14939;43.596;1.320;2023-05-07T13:04:31;22.30;51.00
27506;DHT22;14939;43.596;1.320;2023-05-07T13:06:56;22.10;48.80
27506;DHT22;14939;43.596;1.320;2023-05-07T13:09:22;22.10;48.30
27506;DHT22;14939;43.596;1.320;2023-05-07T13:11:48;22.00;48.40
27506;DHT22;14939;43.596;1.320;2023-05-07T13:14:13;22.30;47.60
27506;DHT22;14939;43.596;1.320;2023-05-07T13:16:39;22.60;47.40
27506;DHT22;14939;43.596;1.320;2023-05-07T13:19:05;22.50;47.30
27506;DHT22;14939;43.596;1.320;2023-05-07T13:21:30;22.00;45.00
27506;DHT22;14939;43.596;1.320;2023-05-07T13:23:59;21.60;47.30
27506;DHT22;14939;43.596;1.320;2023-05-07T13:26:25;21.80;46.40
27506;DHT22;14939;43.596;1.320;2023-05-07T13:28:54;22.00;46.90
27506;DHT22;14939;43.596;1.320;2023-05-07T13:31:20;22.10;47.20
27506;DHT22;14939;43.596;1.320;2023-05-07T13:33:46;22.20;46.10
27506;DHT22;14939;43.596;1.320;2023-05-07T13:36:12;22.60;45.30
27506;DHT22;14939;43.596;1.320;2023-05-07T13:38:38;22.70;43.60
27506;DHT22;14939;43.596;1.320;2023-05-07T13:41:04;22.50;43.80
27506;DHT22;14939;43.596;1.320;2023-05-07T13:43:30;22.50;43.20
27506;DHT22;14939;43.596;1.320;2023-05-07T13:45:57;22.90;42.30
27506;DHT22;14939;43.596;1.320;2023-05-07T13:48:22;22.70;43.30
27506;DHT22;14939;43.596;1.320;2023-05-07T13:50:48;22.60;44.00
27506;DHT22;14939;43.596;1.320;2023-05-07T13:53:14;22.40;44.90
27506;DHT22;14939;43.596;1.320;2023-05-07T13:55:43;22.30;44.30
27506;DHT22;14939;43.596;1.320;2023-05-07T13:58:09;21.80;46.70
27506;DHT22;14939;43.596;1.320;2023-05-07T14:00:34;21.50;46.40
27506;DHT22;14939;43.596;1.320;2023-05-07T14:03:00;21.40;47.30
27506;DHT22;14939;43.596;1.320;2023-05-07T14:05:26;21.40;46.80
27506;DHT22;14939;43.596;1.320;2023-05-07T14:07:54;21.70;46.00
27506;DHT22;14939;43.596;1.320;2023-05-07T14:10:20;21.90;46.60
27506;DHT22;14939;43.596;1.320;2023-05-07T14:12:46;22.40;44.70
27506;DHT22;14939;43.596;1.320;2023-05-07T14:15:12;22.50;43.70
27506;DHT22;14939;43.596;1.320;2023-05-07T14:17:38;22.30;44.90
27506;DHT22;14939;43.596;1.320;2023-05-07T14:20:04;22.20;44.60
27506;DHT22;14939;43.596;1.320;2023-05-07T14:22:31;22.20;44.30
27506;DHT22;14939;43.596;1.320;2023-05-07T14:24:57;22.20;43.30
27506;DHT22;14939;43.596;1.320;2023-05-07T14:27:23;22.20;42.90
27506;DHT22;14939;43.596;1.320;2023-05-07T14:29:48;22.20;43.00
27506;DHT22;14939;43.596;1.320;2023-05-07T14:32:17;22.10;44.10
27506;DHT22;14939;43.596;1.320;2023-05-07T14:34:44;22.00;44.90
27506;DHT22;14939;43.596;1.320;2023-05-07T14:37:09;22.10;44.10
27506;DHT22;14939;43.596;1.320;2023-05-07T14:39:35;22.10;44.30
27506;DHT22;14939;43.596;1.320;2023-05-07T14:42:01;22.00;42.30
27506;DHT22;14939;43.596;1.320;2023-05-07T14:44:27;22.30;42.80
27506;DHT22;14939;43.596;1.320;2023-05-07T14:46:53;22.50;41.10
27506;DHT22;14939;43.596;1.320;2023-05-07T14:49:18;22.50;39.70
27506;DHT22;14939;43.596;1.320;2023-05-07T14:51:44;22.20;40.50
27506;DHT22;14939;43.596;1.320;2023-05-07T14:54:11;21.90;42.00
27506;DHT22;14939;43.596;1.320;2023-05-07T14:56:36;21.50;43.60
27506;DHT22;14939;43.596;1.320;2023-05-07T14:59:03;21.50;43.30
27506;DHT22;14939;43.596;1.320;2023-05-07T15:01:29;21.40;43.90
27506;DHT22;14939;43.596;1.320;2023-05-07T15:03:55;21.30;44.40
27506;DHT22;14939;43.596;1.320;2023-05-07T15:06:21;21.10;45.50
27506;DHT22;14939;43.596;1.320;2023-05-07T15:08:47;21.10;46.90
27506;DHT22;14939;43.596;1.320;2023-05-07T15:11:14;21.10;46.30
27506;DHT22;14939;43.596;1.320;2023-05-07T15:13:41;21.10;47.60
27506;DHT22;14939;43.596;1.320;2023-05-07T15:16:07;21.00;46.10
27506;DHT22;14939;43.596;1.320;2023-05-07T15:18:33;21.00;45.30
27506;DHT22;14939;43.596;1.320;2023-05-07T15:20:58;21.10;45.20
27506;DHT22;14939;43.596;1.320;2023-05-07T15:23:24;21.20;45.90
27506;DHT22;14939;43.596;1.320;2023-05-07T15:25:50;21.30;46.10
27506;DHT22;14939;43.596;1.320;2023-05-07T15:28:15;21.40;46.20
27506;DHT22;14939;43.596;1.320;2023-05-07T15:30:42;21.50;46.50
27506;DHT22;14939;43.596;1.320;2023-05-07T15:33:07;21.50;47.10
27506;DHT22;14939;43.596;1.320;2023-05-07T15:35:33;21.40;47.60
27506;DHT22;14939;43.596;1.320;2023-05-07T15:37:59;21.20;49.60
27506;DHT22;14939;43.596;1.320;2023-05-07T15:40:24;20.70;53.90
27506;DHT22;14939;43.596;1.320;2023-05-07T15:42:54;20.50;55.30